Terminal Aerodrome Forecast
Issued by NWS

Home | Current Version | Previous Version | Text Only | Print | Product List | Glossary On
Versions: 1 2 3 4 5 6 7 8 9 10 11 12 13 14 15 16 17 18 19 20 21 22 23 24 25 26 27 28 29 30 31
913
FTUS43 KLOT 191120
TAFMDW
TAF
KMDW 191120Z 1912/2018 19008KT 4SM BR VCSH OVC006
      TEMPO 1912/1913 1 1/2SM BR BKN004 OVC006
     FM191300 15006KT 1 1/2SM -SHRA BR OVC004
      TEMPO 1914/1918 3/4SM -DZ BR OVC002
     FM191800 20014G21KT 2SM -RA BR BKN008 OVC012 WS020/22050KT
     FM200700 21012KT 1 1/2SM -SHRA BR SCT003 OVC007=

USA.gov is the U.S. government's official web portal to all federal, state and local government web resources and services.